Stevinson, California
Current Conditions -  °F | °C
As of 1:45 PM on Monday 20 Oct 2014 (Local Time) from KMER Reporting Station
Clear Clear  
Wind Chill: 81°   Ceiling: Unl
Heat Index: 81°   Visibility: 10mi
Dew Point: 52°   Wind: 7mph
Humidity: 37%   Direction: 310°NW
Pressure: 29.92"   Gusts: NA
Location:  37.33°N, 120.85°W
Report Text: KMER 202045Z 31006KT 10SM SKC 27/11 A2992
Loading
Personal Weather Stations






























Interactive Weather Map New forecast layout! Learn more

10-Day Weather Forecast

Advertisements
Track Severe Weather on mobile